createdAt,value
2017-12-15T00:01:39.097Z,4.35
2017-12-15T00:04:06.527Z,4.30
2017-12-15T00:06:33.963Z,3.83
2017-12-15T00:09:01.479Z,3.58
2017-12-15T00:11:29.664Z,2.90
2017-12-15T00:13:57.103Z,4.00
2017-12-15T00:16:25.402Z,3.90
2017-12-15T00:18:52.853Z,3.60
2017-12-15T00:21:20.285Z,2.90
2017-12-15T00:23:48.485Z,3.45
2017-12-15T00:26:15.964Z,4.05
2017-12-15T00:28:43.420Z,2.90
2017-12-15T00:31:10.865Z,3.60
2017-12-15T00:33:38.284Z,3.40
2017-12-15T00:36:06.522Z,3.45
2017-12-15T00:38:33.934Z,3.72
2017-12-15T00:41:01.493Z,4.55
2017-12-15T00:43:28.936Z,4.40
2017-12-15T00:45:56.391Z,4.20
2017-12-15T00:48:25.608Z,3.62
2017-12-15T00:50:53.051Z,4.25
2017-12-15T00:53:20.576Z,3.60
2017-12-15T00:55:48.212Z,3.65
2017-12-15T00:58:15.632Z,5.03
2017-12-15T01:00:43.074Z,5.03
2017-12-15T01:03:10.506Z,5.07
2017-12-15T01:05:37.948Z,5.50
2017-12-15T01:08:05.372Z,6.30
2017-12-15T01:10:32.820Z,5.10
2017-12-15T01:13:00.263Z,5.32
2017-12-15T01:15:27.698Z,5.37
2017-12-15T01:17:56.534Z,4.95
2017-12-15T01:20:23.978Z,6.28
2017-12-15T01:22:51.866Z,5.95
2017-12-15T01:25:19.848Z,6.07
2017-12-15T01:27:47.538Z,5.80
2017-12-15T01:30:15.074Z,5.62
2017-12-15T01:32:42.506Z,5.00
2017-12-15T01:35:09.954Z,5.75
2017-12-15T01:37:37.389Z,5.55
2017-12-15T01:40:04.813Z,6.00
2017-12-15T01:42:33.027Z,6.28
2017-12-15T01:45:00.451Z,5.50
2017-12-15T01:47:28.682Z,5.70
2017-12-15T01:49:56.519Z,6.00
2017-12-15T01:52:24.014Z,6.87
2017-12-15T01:54:51.458Z,5.37
2017-12-15T01:57:18.892Z,5.72
2017-12-15T01:59:46.887Z,7.50
2017-12-15T02:02:14.319Z,5.95
2017-12-15T02:04:41.793Z,6.18
2017-12-15T02:07:09.229Z,7.62
2017-12-15T02:09:36.669Z,6.87
2017-12-15T02:12:04.111Z,6.10
2017-12-15T02:14:31.538Z,7.30
2017-12-15T02:16:58.982Z,6.85
2017-12-15T02:19:26.551Z,6.53
2017-12-15T02:21:54.001Z,7.12
2017-12-15T02:24:21.440Z,7.30
2017-12-15T02:26:49.046Z,7.60
2017-12-15T02:29:17.617Z,8.63
2017-12-15T02:31:45.030Z,7.65
2017-12-15T02:34:12.474Z,8.45
2017-12-15T02:36:40.827Z,7.25
2017-12-15T02:39:08.364Z,7.95
2017-12-15T02:44:10.637Z,8.05
2017-12-15T02:46:38.067Z,8.52
2017-12-15T02:49:05.502Z,9.75
2017-12-15T02:51:32.948Z,8.55
2017-12-15T02:54:00.395Z,7.00
2017-12-15T02:56:27.844Z,9.73
2017-12-15T02:58:55.383Z,9.52
2017-12-15T03:01:23.612Z,9.05
2017-12-15T03:03:51.356Z,12.40
2017-12-15T03:06:19.279Z,11.60
2017-12-15T03:08:48.343Z,11.57
2017-12-15T03:11:15.781Z,12.57
2017-12-15T03:13:43.236Z,13.25
2017-12-15T03:16:10.685Z,12.45
2017-12-15T03:18:38.148Z,12.20
2017-12-15T03:21:05.603Z,12.32
2017-12-15T03:23:33.060Z,12.50
2017-12-15T03:26:00.498Z,11.00
2017-12-15T03:28:27.976Z,14.27
2017-12-15T03:30:55.412Z,12.27
2017-12-15T03:33:22.860Z,11.50
2017-12-15T03:35:50.556Z,10.82
2017-12-15T03:38:18.008Z,11.45
2017-12-15T03:40:45.467Z,12.80
2017-12-15T03:43:12.906Z,11.95
2017-12-15T03:45:40.380Z,12.95
2017-12-15T03:48:07.820Z,13.60
2017-12-15T03:50:35.271Z,11.95
2017-12-15T03:53:02.728Z,13.32
2017-12-15T03:55:30.184Z,11.98
2017-12-15T03:57:57.644Z,15.52
2017-12-15T04:00:25.088Z,12.57
2017-12-15T04:02:53.635Z,11.75
2017-12-15T04:05:21.840Z,12.55
2017-12-15T04:07:49.458Z,12.30
2017-12-15T04:10:17.111Z,13.18
2017-12-15T04:12:44.547Z,12.80
2017-12-15T04:15:11.999Z,11.73
2017-12-15T04:17:39.460Z,11.38
2017-12-15T04:20:06.908Z,10.38
2017-12-15T04:22:34.371Z,11.85
2017-12-15T04:25:01.825Z,10.73
2017-12-15T04:27:29.283Z,10.95
2017-12-15T04:29:57.494Z,11.77
2017-12-15T04:32:25.699Z,10.45
2017-12-15T04:34:53.180Z,9.10
2017-12-15T04:37:21.687Z,10.90
2017-12-15T04:39:49.239Z,10.70
2017-12-15T04:42:17.224Z,11.45
2017-12-15T04:44:44.647Z,9.60
2017-12-15T04:47:12.108Z,10.35
2017-12-15T04:49:39.550Z,9.88
2017-12-15T04:52:06.993Z,9.75
2017-12-15T04:54:34.436Z,9.15
2017-12-15T04:57:01.885Z,7.97
2017-12-15T04:59:29.316Z,9.77
2017-12-15T05:01:57.527Z,9.77
2017-12-15T05:04:25.600Z,9.23
2017-12-15T05:06:53.082Z,9.77
2017-12-15T05:09:20.540Z,8.85
2017-12-15T05:11:48.151Z,8.60
2017-12-15T05:14:15.598Z,8.80
2017-12-15T05:16:43.811Z,8.55
2017-12-15T05:19:11.255Z,8.90
2017-12-15T05:21:38.723Z,7.80
2017-12-15T05:24:06.151Z,8.70
2017-12-15T05:26:33.615Z,9.30
2017-12-15T05:29:01.048Z,9.77
2017-12-15T05:31:28.542Z,8.95
2017-12-15T05:33:56.326Z,9.57
2017-12-15T05:36:23.754Z,10.45
2017-12-15T05:38:51.202Z,9.02
2017-12-15T05:41:18.799Z,8.15
2017-12-15T05:43:46.301Z,8.45
2017-12-15T05:46:13.769Z,10.38
2017-12-15T05:48:41.240Z,10.15
2017-12-15T05:51:08.680Z,9.70
2017-12-15T05:53:36.133Z,9.77
2017-12-15T05:56:03.614Z,10.30
2017-12-15T05:58:31.059Z,9.80
2017-12-15T06:00:58.516Z,11.23
2017-12-15T06:03:25.980Z,9.98
2017-12-15T06:05:54.320Z,10.20
2017-12-15T06:08:21.803Z,10.63
2017-12-15T06:10:49.234Z,8.95
2017-12-15T06:13:16.731Z,10.30
2017-12-15T06:15:44.165Z,10.57
2017-12-15T06:18:11.633Z,11.10
2017-12-15T06:20:39.072Z,10.80
2017-12-15T06:23:06.534Z,11.30
2017-12-15T06:25:34.200Z,11.00
2017-12-15T06:28:01.639Z,9.57
2017-12-15T06:30:29.087Z,9.60
2017-12-15T06:32:56.543Z,9.80
2017-12-15T06:35:23.971Z,9.98
2017-12-15T06:37:51.451Z,10.32
2017-12-15T06:40:18.895Z,10.90
2017-12-15T06:42:47.116Z,11.02
2017-12-15T06:45:14.555Z,11.90
2017-12-15T06:47:42.454Z,11.35
2017-12-15T06:50:09.876Z,11.32
2017-12-15T06:52:37.800Z,12.65
2017-12-15T06:55:06.011Z,11.93
2017-12-15T06:57:33.442Z,12.10
2017-12-15T07:00:01.691Z,13.05
2017-12-15T07:02:29.118Z,11.38
2017-12-15T07:04:56.651Z,13.10
2017-12-15T07:07:24.113Z,12.55
2017-12-15T07:09:51.558Z,12.57
2017-12-15T07:12:19.011Z,12.50
2017-12-15T07:14:46.495Z,13.23
2017-12-15T07:17:13.942Z,11.73
2017-12-15T07:19:41.390Z,13.50
2017-12-15T07:22:08.851Z,12.82
2017-12-15T07:24:36.305Z,12.13
2017-12-15T07:27:03.746Z,11.45
2017-12-15T07:29:31.205Z,11.38
2017-12-15T07:31:58.639Z,12.15
2017-12-15T07:34:26.878Z,10.93
2017-12-15T07:36:54.319Z,10.85
2017-12-15T07:39:22.750Z,10.90
2017-12-15T07:41:50.949Z,11.55
2017-12-15T07:44:18.410Z,11.18
2017-12-15T07:46:45.856Z,10.98
2017-12-15T08:25:41.579Z,9.75
2017-12-15T10:11:48.336Z,4.70
2017-12-15T10:14:16.414Z,6.15
2017-12-15T10:19:57.802Z,5.30
2017-12-15T10:25:27.523Z,6.12
2017-12-15T10:31:28.994Z,6.57
2017-12-15T10:57:19.733Z,5.12
2017-12-15T11:11:58.187Z,5.03
2017-12-15T12:59:35.383Z,5.70
2017-12-15T13:03:40.447Z,5.03
2017-12-15T14:41:23.409Z,3.42
2017-12-15T16:36:54.715Z,5.00
2017-12-15T16:39:22.988Z,5.57
2017-12-15T16:41:50.689Z,6.07
2017-12-15T16:44:18.143Z,6.22
2017-12-15T16:46:45.625Z,6.00
2017-12-15T16:49:13.083Z,5.65
2017-12-15T16:51:46.933Z,3.92
2017-12-15T16:54:16.439Z,4.85
2017-12-15T16:56:49.960Z,6.07
2017-12-15T16:59:20.400Z,4.82
2017-12-15T17:01:47.868Z,4.70
2017-12-15T17:04:16.664Z,4.95
2017-12-15T17:06:45.653Z,5.25
2017-12-15T17:09:14.974Z,5.10
2017-12-15T17:11:45.547Z,5.12
2017-12-15T17:14:13.141Z,5.65
2017-12-15T17:16:40.905Z,5.78
2017-12-15T17:19:08.780Z,6.07
2017-12-15T17:21:36.367Z,5.85
2017-12-15T17:24:04.456Z,5.78
2017-12-15T17:26:31.906Z,6.62
2017-12-15T17:28:59.973Z,6.93
2017-12-15T17:31:27.410Z,7.25
2017-12-15T17:33:55.611Z,6.60
2017-12-15T17:36:23.056Z,6.28
2017-12-15T17:38:51.486Z,7.37
2017-12-15T17:41:19.295Z,7.05
2017-12-15T17:43:47.183Z,7.05
2017-12-15T17:46:17.260Z,6.43
2017-12-15T17:48:46.914Z,6.18
2017-12-15T17:51:14.787Z,6.97
2017-12-15T17:53:42.361Z,7.75
2017-12-15T17:56:09.791Z,5.82
2017-12-15T17:58:37.244Z,6.97
2017-12-15T18:01:04.748Z,7.25
2017-12-15T18:03:32.197Z,7.45
2017-12-15T18:06:00.312Z,6.97
2017-12-15T18:08:27.865Z,6.80
2017-12-15T18:10:55.712Z,6.55
2017-12-15T18:13:23.358Z,7.75
2017-12-15T18:15:50.906Z,7.65
2017-12-15T18:18:20.559Z,7.03
2017-12-15T18:30:46.537Z,7.22
2017-12-15T18:33:32.354Z,7.55
2017-12-15T18:39:05.449Z,7.00
2017-12-15T18:41:40.987Z,8.30
2017-12-15T18:47:20.887Z,8.07
2017-12-15T18:50:02.139Z,8.00
2017-12-15T19:16:33.291Z,8.75
2017-12-15T19:22:10.670Z,9.50
2017-12-15T19:33:27.434Z,8.85
2017-12-15T20:48:56.874Z,9.70
2017-12-15T20:51:26.875Z,10.15
2017-12-15T20:53:55.031Z,11.30
2017-12-15T23:48:43.390Z,18.90
2017-12-15T23:51:16.159Z,19.55
2017-12-15T23:53:59.125Z,19.30
2017-12-15T23:56:41.736Z,17.12
2017-12-15T23:59:11.794Z,17.92
